Time;durP1;ratioP1;P1;durP2;ratioP2;P2;SDS_P1;SDS_P2;PMS_P1;PMS_P2;Temp;Humidity;BMP_temperature;BMP_pressure;BME280_temperature;BME280_humidity;BME280_pressure;Samples;Min_cycle;Max_cycle;Signal;HPM_P1;HPM_P2
2022/04/29 00:01:56;;;;;;;1.13;0.70;;;;;;;11.08;77.64;102298.03;5061323;28;20033;-68
2022/04/29 00:04:23;;;;;;;1.55;1.13;;;;;;;11.01;78.02;102303.13;5066514;28;20029;-68
2022/04/29 00:06:49;;;;;;;0.73;0.65;;;;;;;11.00;78.74;102304.22;5068285;28;20048;-68
2022/04/29 00:09:15;;;;;;;0.85;0.57;;;;;;;11.01;78.32;102291.53;5069147;28;20058;-68
2022/04/29 00:11:40;;;;;;;0.77;0.70;;;;;;;10.99;77.69;102291.06;5060781;28;20048;-68
2022/04/29 00:14:06;;;;;;;0.80;0.68;;;;;;;10.95;78.55;102287.41;5036468;28;20041;-68
2022/04/29 00:16:31;;;;;;;0.68;0.52;;;;;;;10.92;78.29;102282.66;5065681;28;20041;-68
2022/04/29 00:18:56;;;;;;;6.93;1.17;;;;;;;10.93;78.36;102287.75;5069399;28;20543;-68
2022/04/29 00:21:23;;;;;;;1.80;1.02;;;;;;;10.87;79.40;102299.78;5060756;28;20043;-68
2022/04/29 00:23:49;;;;;;;2.03;0.73;;;;;;;10.81;80.00;102290.25;5048514;28;20040;-68
2022/04/29 00:26:15;;;;;;;1.35;0.93;;;;;;;10.72;79.97;102294.84;5050889;28;20437;-68
2022/04/29 00:28:40;;;;;;;1.05;0.60;;;;;;;10.73;80.20;102291.84;5070319;28;20037;-68
2022/04/29 00:31:06;;;;;;;0.90;0.65;;;;;;;10.78;79.74;102299.00;5069611;28;20058;-68
2022/04/29 00:33:32;;;;;;;0.60;0.50;;;;;;;10.75;79.54;102300.41;5052153;28;20040;-68
2022/04/29 00:35:57;;;;;;;2.95;0.75;;;;;;;10.69;79.85;102288.19;5043984;28;20036;-68
2022/04/29 00:38:23;;;;;;;0.60;0.35;;;;;;;10.66;79.99;102280.75;5049990;28;20191;-68
2022/04/29 00:40:48;;;;;;;2.38;0.95;;;;;;;10.69;79.85;102285.50;5034032;28;20029;-68
2022/04/29 00:43:14;;;;;;;2.35;0.95;;;;;;;10.64;79.82;102288.34;5054713;28;20044;-68
2022/04/29 00:45:39;;;;;;;1.30;0.60;;;;;;;10.46;80.75;102275.94;5073415;28;20099;-68
2022/04/29 00:48:07;;;;;;;4.32;0.82;;;;;;;10.45;81.86;102279.72;5073370;28;20136;-68
2022/04/29 00:50:33;;;;;;;1.08;0.73;;;;;;;10.36;82.45;102284.31;5069988;28;20043;-68
2022/04/29 00:53:01;;;;;;;1.95;1.00;;;;;;;10.49;82.11;102286.06;5067986;28;20470;-68
2022/04/29 00:55:29;;;;;;;1.00;0.55;;;;;;;10.41;82.10;102289.56;5046159;28;20094;-68
2022/04/29 00:58:12;;;;;;;0.82;0.45;;;;;;;10.39;81.78;102281.00;5042612;28;20052;-68
2022/04/29 01:00:38;;;;;;;1.70;0.80;;;;;;;10.41;81.69;102276.09;5062346;28;20064;-68
2022/04/29 01:03:05;;;;;;;2.67;0.90;;;;;;;10.44;81.58;102271.97;5070874;28;20109;-68
2022/04/29 01:05:34;;;;;;;1.10;0.95;;;;;;;10.45;81.28;102262.78;5042215;28;20098;-68
2022/04/29 01:07:59;;;;;;;0.80;0.80;;;;;;;10.38;81.82;102273.22;5066658;28;20127;-68
2022/04/29 01:10:25;;;;;;;1.17;0.65;;;;;;;10.32;82.20;102271.75;5061843;28;20551;-68
2022/04/29 01:12:57;;;;;;;10.70;0.75;;;;;;;10.34;82.30;102261.47;5052924;28;20067;-68
2022/04/29 01:15:23;;;;;;;0.50;0.50;;;;;;;10.33;82.36;102265.28;5071007;28;20453;-68
2022/04/29 01:17:50;;;;;;;0.52;0.52;;;;;;;10.25;82.71;102261.47;5092464;28;20545;-68
2022/04/29 01:20:23;;;;;;;0.43;0.38;;;;;;;10.28;82.85;102262.75;5035621;28;20059;-68
2022/04/29 01:22:48;;;;;;;0.52;0.52;;;;;;;10.23;82.66;102260.19;5050756;28;20082;-68
2022/04/29 01:25:14;;;;;;;0.77;0.73;;;;;;;10.20;83.10;102266.97;5073429;28;20538;-68
2022/04/29 01:27:46;;;;;;;1.08;0.90;;;;;;;10.22;83.33;102261.31;5055226;28;20123;-68
2022/04/29 01:30:16;;;;;;;8.70;0.95;;;;;;;10.19;83.28;102256.53;5049987;28;20112;-68
2022/04/29 01:32:42;;;;;;;2.25;0.90;;;;;;;10.19;83.22;102254.63;5079810;28;20028;-69
2022/04/29 01:35:10;;;;;;;3.72;0.60;;;;;;;10.18;83.14;102261.13;5047292;28;20036;-68
2022/04/29 01:37:36;;;;;;;1.60;0.60;;;;;;;10.13;83.34;102255.09;5065868;28;20473;-67
2022/04/29 01:40:02;;;;;;;0.95;0.82;;;;;;;10.06;83.26;102247.44;5047972;28;20033;-68
2022/04/29 01:42:28;;;;;;;0.63;0.63;;;;;;;10.06;82.83;102260.91;5054464;28;20025;-68
2022/04/29 01:44:54;;;;;;;1.58;1.00;;;;;;;10.00;83.67;102248.69;5049741;28;20044;-68
2022/04/29 01:47:20;;;;;;;1.05;0.65;;;;;;;10.02;83.49;102251.88;5035162;28;20064;-68
2022/04/29 01:49:56;;;;;;;1.25;0.90;;;;;;;9.97;83.62;102246.59;5071937;28;20037;-68
2022/04/29 01:52:22;;;;;;;1.52;1.00;;;;;;;9.99;83.98;102239.00;5055453;28;20070;-68
2022/04/29 01:54:47;;;;;;;1.98;0.77;;;;;;;9.95;84.63;102241.53;5044148;28;20064;-68
2022/04/29 01:57:13;;;;;;;1.10;1.02;;;;;;;9.94;84.36;102241.84;5054231;28;20395;-68
2022/04/29 01:59:38;;;;;;;0.80;0.80;;;;;;;9.95;84.71;102243.44;5074350;28;20527;-68
2022/04/29 02:02:07;;;;;;;2.05;0.68;;;;;;;9.97;84.90;102257.38;5054363;28;20017;-68
2022/04/29 02:04:35;;;;;;;0.82;0.63;;;;;;;9.96;85.05;102251.22;5046342;28;20032;-68
2022/04/29 02:07:02;;;;;;;0.52;0.52;;;;;;;9.94;85.02;102252.63;5045763;28;20537;-68
2022/04/29 02:09:30;;;;;;;2.75;1.10;;;;;;;9.73;85.49;102252.38;5054750;28;20600;-68
2022/04/29 02:12:05;;;;;;;1.38;1.27;;;;;;;9.75;85.79;102249.38;5059972;28;20049;-68
2022/04/29 02:14:49;;;;;;;0.60;0.57;;;;;;;9.74;85.92;102242.38;5053814;28;20082;-68
2022/04/29 02:17:17;;;;;;;2.92;0.80;;;;;;;9.73;86.57;102240.81;5057493;28;20119;-68
2022/04/29 02:19:42;;;;;;;1.75;0.98;;;;;;;9.78;86.49;102246.06;5047444;28;20116;-68
2022/04/29 02:22:09;;;;;;;2.53;1.55;;;;;;;9.82;86.22;102237.06;5055084;28;20111;-68
2022/04/29 02:24:35;;;;;;;1.33;0.52;;;;;;;9.80;86.44;102233.09;5058601;28;20572;-68
2022/04/29 02:27:03;;;;;;;1.67;0.73;;;;;;;9.78;86.59;102241.47;5070611;28;20123;-68
2022/04/29 02:29:29;;;;;;;3.38;1.52;;;;;;;9.77;86.19;102233.72;5061629;28;20473;-68
2022/04/29 02:31:57;;;;;;;1.40;0.52;;;;;;;9.76;85.91;102245.56;5051457;28;20116;-68
2022/04/29 02:34:23;;;;;;;1.15;0.85;;;;;;;9.74;86.36;102237.00;5061386;28;20024;-68
2022/04/29 02:36:50;;;;;;;2.15;0.95;;;;;;;9.74;86.00;102237.00;5043213;28;20029;-68
2022/04/29 02:39:16;;;;;;;1.45;1.20;;;;;;;9.70;85.81;102238.72;5063956;28;20092;-68
2022/04/29 02:41:41;;;;;;;1.77;0.98;;;;;;;9.57;86.95;102236.94;5053106;28;20048;-68
2022/04/29 02:44:07;;;;;;;3.10;1.10;;;;;;;9.57;86.90;102237.72;5051295;28;20024;-68
2022/04/29 02:46:33;;;;;;;1.88;0.88;;;;;;;9.61;86.62;102237.91;5047001;28;20028;-67
2022/04/29 02:48:59;;;;;;;2.58;1.30;;;;;;;9.58;86.44;102233.91;5055923;28;20036;-68
2022/04/29 02:51:25;;;;;;;1.80;1.05;;;;;;;9.55;86.16;102239.94;5076097;28;20036;-68
2022/04/29 02:53:51;;;;;;;0.80;0.80;;;;;;;9.57;86.18;102239.63;5070426;28;20039;-68
2022/04/29 02:56:17;;;;;;;5.13;1.02;;;;;;;9.57;86.08;102234.25;5071761;28;20121;-68
2022/04/29 02:59:04;;;;;;;3.95;1.10;;;;;;;9.54;86.23;102234.88;5057033;28;20432;-68
2022/04/29 03:01:29;;;;;;;0.75;0.75;;;;;;;9.50;86.27;102236.59;5045580;28;20033;-68
2022/04/29 03:03:55;;;;;;;1.42;1.20;;;;;;;9.44;86.56;102227.84;5046049;28;20028;-68
2022/04/29 03:06:21;;;;;;;1.35;0.65;;;;;;;9.42;86.39;102229.25;5059884;28;20057;-68
2022/04/29 03:08:46;;;;;;;1.40;0.75;;;;;;;9.35;87.50;102231.59;5070846;28;20037;-68
2022/04/29 03:11:12;;;;;;;3.33;0.93;;;;;;;9.35;87.43;102228.91;5038174;28;20032;-68
2022/04/29 03:13:37;;;;;;;1.70;0.80;;;;;;;9.33;87.80;102226.50;5051386;28;20024;-67
2022/04/29 03:16:09;;;;;;;1.20;0.80;;;;;;;9.42;87.95;102223.88;5066296;28;20082;-68
2022/04/29 03:18:35;;;;;;;3.55;1.48;;;;;;;9.36;87.55;102222.41;5052804;28;20119;-68
2022/04/29 03:21:00;;;;;;;1.13;1.02;;;;;;;9.35;87.54;102216.25;5021595;28;20028;-68
2022/04/29 03:23:26;;;;;;;5.28;0.80;;;;;;;9.34;87.26;102206.59;5049810;28;20313;-68
2022/04/29 03:25:56;;;;;;;1.08;0.85;;;;;;;9.33;87.73;102214.97;5064893;28;20619;-68
2022/04/29 03:28:23;;;;;;;1.35;1.02;;;;;;;9.34;87.53;102216.56;5070760;28;20489;-68
2022/04/29 03:30:50;;;;;;;2.20;1.17;;;;;;;9.31;87.49;102214.50;5039418;28;20028;-68
2022/04/29 03:33:16;;;;;;;3.30;1.00;;;;;;;9.28;87.52;102209.72;5060905;28;20024;-68
2022/04/29 03:35:47;;;;;;;1.92;1.20;;;;;;;9.31;87.59;102201.06;5053008;28;20028;-68
2022/04/29 03:38:21;;;;;;;1.77;0.73;;;;;;;9.20;87.59;102205.06;5050276;28;20047;-68
2022/04/29 03:40:47;;;;;;;3.00;1.20;;;;;;;9.24;87.46;102200.66;5050484;28;20032;-68
2022/04/29 03:43:12;;;;;;;1.65;0.85;;;;;;;9.22;87.94;102198.28;5069544;28;20640;-68
2022/04/29 03:45:40;;;;;;;11.35;1.25;;;;;;;9.18;88.35;102204.59;5049228;28;20455;-68
2022/04/29 03:48:10;;;;;;;2.33;1.00;;;;;;;9.19;88.36;102208.88;5050348;28;20029;-68
2022/04/29 03:50:41;;;;;;;7.40;1.02;;;;;;;9.09;88.24;102199.97;5056195;28;20455;-68
2022/04/29 03:53:10;;;;;;;1.38;1.20;;;;;;;9.22;88.15;102213.63;5051364;28;20550;-68
2022/04/29 03:55:38;;;;;;;2.60;1.10;;;;;;;9.14;88.55;102211.69;5050953;28;20040;-67
2022/04/29 03:58:04;;;;;;;0.95;0.60;;;;;;;9.15;88.67;102215.97;5051117;28;20032;-68
2022/04/29 04:00:36;;;;;;;2.05;1.38;;;;;;;9.21;88.41;102220.91;5054290;28;20107;-68
2022/04/29 04:03:06;;;;;;;2.63;1.48;;;;;;;9.23;88.54;102215.22;5046672;28;20111;-68
2022/04/29 04:05:33;;;;;;;1.42;1.10;;;;;;;9.17;88.52;102209.19;5065165;28;20481;-68
2022/04/29 04:07:59;;;;;;;1.88;1.13;;;;;;;9.07;89.02;102212.13;5031479;28;20074;-68
2022/04/29 04:10:43;;;;;;;2.03;1.02;;;;;;;9.13;88.93;102205.53;5046163;28;20024;-68
2022/04/29 04:13:13;;;;;;;2.25;0.75;;;;;;;9.16;88.72;102204.09;5070533;28;20066;-68
2022/04/29 04:15:56;;;;;;;0.90;0.77;;;;;;;9.13;88.67;102200.16;5020162;28;20527;-68
2022/04/29 04:18:22;;;;;;;2.20;0.95;;;;;;;9.14;88.85;102203.63;5038172;28;20040;-68
2022/04/29 04:20:48;;;;;;;0.43;0.43;;;;;;;9.10;88.53;102198.84;5031633;28;20462;-68
2022/04/29 04:23:14;;;;;;;1.70;1.10;;;;;;;9.07;89.11;102196.78;5050997;28;20017;-69
2022/04/29 04:25:40;;;;;;;2.95;1.17;;;;;;;9.07;89.28;102202.16;5049597;28;20935;-68
2022/04/29 04:28:12;;;;;;;0.98;0.90;;;;;;;9.05;89.32;102196.31;5031594;28;20037;-68
2022/04/29 04:30:47;;;;;;;1.13;1.08;;;;;;;9.15;89.16;102202.53;5063654;28;20091;-68
2022/04/29 04:33:15;;;;;;;2.95;1.50;;;;;;;9.14;89.15;102206.31;5051303;28;20036;-68
2022/04/29 04:35:41;;;;;;;1.42;1.20;;;;;;;9.19;89.30;102208.88;5046336;28;20020;-68
2022/04/29 04:38:06;;;;;;;1.25;1.08;;;;;;;9.19;89.02;102225.00;5068246;28;20024;-68
2022/04/29 04:40:46;;;;;;;4.30;1.52;;;;;;;9.21;89.00;102228.19;5039797;28;20080;-68
2022/04/29 04:43:11;;;;;;;1.35;1.25;;;;;;;9.23;88.99;102225.97;5036566;28;20060;-68
2022/04/29 04:45:37;;;;;;;2.33;1.33;;;;;;;9.24;89.38;102227.56;5029730;28;20082;-68
2022/04/29 04:48:20;;;;;;;0.73;0.73;;;;;;;9.27;89.13;102218.88;5067819;28;20558;-68
2022/04/29 04:51:04;;;;;;;0.98;0.85;;;;;;;9.32;88.82;102224.13;5086876;28;20078;-68
2022/04/29 04:53:33;;;;;;;1.13;1.02;;;;;;;9.20;89.24;102227.38;5060107;28;20089;-68
2022/04/29 04:55:58;;;;;;;1.92;1.25;;;;;;;9.22;88.96;102224.38;5051144;28;20028;-68
2022/04/29 04:58:24;;;;;;;2.63;1.40;;;;;;;9.23;88.75;102220.59;5041981;28;20563;-68
2022/04/29 05:00:50;;;;;;;1.20;0.93;;;;;;;9.27;88.76;102226.97;5041964;28;20053;-68
2022/04/29 05:03:44;;;;;;;3.72;1.10;;;;;;;9.23;88.99;102225.97;5044813;28;20086;-68
2022/04/29 05:06:28;;;;;;;2.78;1.40;;;;;;;9.29;88.69;102238.97;5034091;28;20160;-68
2022/04/29 05:08:56;;;;;;;0.55;0.55;;;;;;;9.27;88.63;102237.72;5049625;28;20024;-69
2022/04/29 05:11:21;;;;;;;1.20;0.60;;;;;;;9.32;88.30;102237.56;5050164;28;20029;-67
2022/04/29 05:13:52;;;;;;;2.88;1.08;;;;;;;9.35;87.83;102240.44;5047233;28;20105;-67
2022/04/29 05:16:17;;;;;;;2.90;1.38;;;;;;;9.35;88.02;102236.97;5050748;28;20119;-68
2022/04/29 05:19:11;;;;;;;3.20;1.23;;;;;;;9.33;87.59;102225.72;5068611;28;20481;-68
2022/04/29 05:21:37;;;;;;;3.90;0.95;;;;;;;9.33;88.13;102236.47;5060702;28;20033;-67
2022/04/29 05:24:03;;;;;;;2.28;1.15;;;;;;;9.32;88.44;102234.88;5027863;28;20021;-67
2022/04/29 05:26:47;;;;;;;1.52;1.33;;;;;;;9.40;88.73;102228.75;5068002;28;20067;-67
2022/04/29 05:29:33;;;;;;;3.00;1.75;;;;;;;9.44;88.47;102244.00;5070707;28;20036;-67
2022/04/29 05:32:17;;;;;;;2.80;0.93;;;;;;;9.58;88.42;102233.91;5061483;28;20086;-67
2022/04/29 05:35:04;;;;;;;9.25;1.45;;;;;;;9.81;87.38;102230.06;5071412;28;20178;-67
2022/04/29 05:38:05;;;;;;;1.25;0.95;;;;;;;10.02;86.42;102238.41;5001320;28;20415;-67
2022/04/29 05:43:15;;;;;;;1.65;0.95;;;;;;;10.92;83.50;102250.31;5071123;28;20043;-68
2022/04/29 05:45:40;;;;;;;1.83;1.35;;;;;;;11.36;81.98;102244.56;5033863;28;20482;-67
2022/04/29 05:48:06;;;;;;;2.53;1.02;;;;;;;12.00;79.54;102256.91;5046185;28;20036;-67
2022/04/29 05:50:33;;;;;;;2.05;0.98;;;;;;;12.38;76.41;102254.19;5050142;28;20045;-68
2022/04/29 05:53:00;;;;;;;7.25;1.52;;;;;;;12.54;75.42;102253.28;5051531;28;20029;-67
2022/04/29 05:55:26;;;;;;;6.90;1.77;;;;;;;12.70;73.29;102258.91;5049979;28;20024;-67
2022/04/29 05:57:56;;;;;;;4.22;1.55;;;;;;;12.72;72.92;102253.19;5052607;28;20033;-67
2022/04/29 06:00:22;;;;;;;3.42;1.30;;;;;;;12.56;73.20;102251.06;5036317;28;20432;-67
2022/04/29 06:02:59;;;;;;;1.17;0.77;;;;;;;12.40;74.41;102247.34;5051816;28;20078;-67
2022/04/29 06:05:29;;;;;;;8.38;1.65;;;;;;;12.33;75.29;102247.06;5051532;28;20082;-67
2022/04/29 06:07:54;;;;;;;2.42;1.10;;;;;;;12.24;75.22;102251.72;5051373;28;20465;-67
2022/04/29 06:10:29;;;;;;;2.20;1.17;;;;;;;12.36;74.90;102241.03;5055110;28;20024;-67
2022/04/29 06:12:55;;;;;;;4.25;0.93;;;;;;;12.52;74.29;102244.72;5053018;28;20408;-67
2022/04/29 06:15:32;;;;;;;0.80;0.63;;;;;;;12.50;74.89;102255.06;5051861;28;20125;-67
2022/04/29 06:18:16;;;;;;;2.58;1.13;;;;;;;12.21;74.72;102252.41;5056905;28;20109;-67
2022/04/29 06:21:10;;;;;;;1.55;1.10;;;;;;;11.99;76.40;102262.66;5051937;28;20416;-67
2022/04/29 06:23:48;;;;;;;1.92;1.27;;;;;;;12.00;76.21;102256.16;5046764;28;20036;-67
2022/04/29 06:26:14;;;;;;;0.95;0.68;;;;;;;12.25;76.38;102257.94;5055391;28;20115;-67
2022/04/29 06:28:41;;;;;;;1.75;0.93;;;;;;;12.53;75.75;102259.03;5051551;28;20020;-67
2022/04/29 06:31:07;;;;;;;1.73;1.10;;;;;;;12.93;73.80;102253.97;5053197;28;20085;-67
2022/04/29 06:33:34;;;;;;;3.47;1.58;;;;;;;12.99;72.98;102249.97;5050549;28;20559;-68
2022/04/29 06:36:01;;;;;;;1.10;0.80;;;;;;;13.03;72.77;102248.16;5049791;28;20029;-68
2022/04/29 06:38:27;;;;;;;2.50;0.98;;;;;;;13.06;71.45;102251.03;5051397;28;20029;-68
2022/04/29 06:40:56;;;;;;;1.40;0.98;;;;;;;13.02;72.31;102249.28;5070519;28;20055;-68
2022/04/29 06:43:30;;;;;;;2.63;1.55;;;;;;;13.07;73.42;102246.38;5051709;28;20397;-68
2022/04/29 06:46:17;;;;;;;2.00;1.02;;;;;;;13.26;73.46;102265.63;5070349;28;20062;-68
2022/04/29 06:49:03;;;;;;;3.42;1.15;;;;;;;13.27;72.93;102254.50;5067966;28;20080;-68
2022/04/29 06:51:47;;;;;;;5.60;1.55;;;;;;;13.35;73.62;102260.94;5070079;28;20051;-68
2022/04/29 06:54:27;;;;;;;1.48;1.20;;;;;;;13.55;73.25;102260.88;5065908;28;20029;-68
2022/04/29 06:56:59;;;;;;;2.60;0.95;;;;;;;13.65;72.97;102262.38;5046390;28;20041;-68
2022/04/29 06:59:26;;;;;;;2.60;1.27;;;;;;;13.90;70.50;102255.09;5068629;28;20063;-68
2022/04/29 07:01:51;;;;;;;6.95;1.40;;;;;;;13.77;70.22;102256.97;5050246;28;20021;-67
2022/04/29 07:04:17;;;;;;;2.03;0.93;;;;;;;13.94;70.74;102256.75;5050452;28;20086;-68
2022/04/29 07:06:43;;;;;;;1.60;0.80;;;;;;;13.92;71.24;102261.72;5045465;28;20039;-67
2022/04/29 07:09:08;;;;;;;2.78;1.00;;;;;;;13.98;70.81;102249.53;5049279;28;20064;-68
2022/04/29 07:11:54;;;;;;;0.52;0.40;;;;;;;13.94;71.76;102269.50;5069364;28;20043;-67
2022/04/29 07:14:27;;;;;;;1.95;1.00;;;;;;;14.20;70.70;102261.84;5049921;28;20054;-68
2022/04/29 07:17:13;;;;;;;1.23;0.77;;;;;;;14.28;71.31;102261.00;5055202;28;20424;-68
2022/04/29 07:19:43;;;;;;;2.15;0.90;;;;;;;14.56;70.40;102267.28;5043977;28;20044;-68
2022/04/29 07:22:08;;;;;;;1.52;0.80;;;;;;;14.63;69.31;102267.50;5050426;28;20025;-67
2022/04/29 07:24:41;;;;;;;1.52;0.88;;;;;;;14.73;69.22;102260.81;5048245;28;20025;-68
2022/04/29 07:27:06;;;;;;;1.17;0.80;;;;;;;15.09;66.28;102264.19;5067320;28;20054;-68
2022/04/29 07:29:32;;;;;;;1.77;0.80;;;;;;;15.09;67.79;102263.41;5049505;28;20032;-68
2022/04/29 07:32:05;;;;;;;1.70;1.02;;;;;;;15.20;67.72;102265.28;5051099;28;20036;-68
2022/04/29 07:43:51;;;;;;;1.63;0.77;;;;;;;15.87;62.91;102248.03;5065242;28;20067;-68
2022/04/29 07:46:17;;;;;;;1.23;0.95;;;;;;;15.76;62.87;102247.00;5051134;28;20524;-68
2022/04/29 07:49:01;;;;;;;1.17;0.57;;;;;;;15.92;61.99;102253.22;5060232;28;20082;-68
2022/04/29 07:51:26;;;;;;;1.27;0.77;;;;;;;15.79;63.36;102243.59;5051753;28;20032;-68
2022/04/29 07:53:52;;;;;;;1.05;0.88;;;;;;;15.80;61.25;102249.78;5045710;28;20033;-68
2022/04/29 07:56:17;;;;;;;5.97;1.08;;;;;;;15.72;59.48;102237.16;5065752;28;20025;-68
2022/04/29 07:58:44;;;;;;;5.90;0.75;;;;;;;15.70;62.36;102250.34;5049204;28;20040;-68
2022/04/29 08:01:10;;;;;;;1.60;0.75;;;;;;;16.03;60.52;102256.19;5035681;28;20025;-68
2022/04/29 08:03:39;;;;;;;1.02;0.30;;;;;;;16.13;60.88;102250.22;5047471;28;20520;-68
2022/04/29 08:06:08;;;;;;;1.85;1.05;;;;;;;16.44;60.12;102258.31;5044664;28;20025;-68
2022/04/29 08:08:35;;;;;;;1.45;0.63;;;;;;;16.83;59.05;102251.81;5039442;28;20519;-68
2022/04/29 08:11:01;;;;;;;3.10;0.60;;;;;;;16.89;57.11;102255.03;5050799;28;20028;-68
2022/04/29 08:13:32;;;;;;;0.57;0.45;;;;;;;16.63;57.03;102249.44;5045565;28;20115;-68
2022/04/29 08:16:16;;;;;;;1.00;0.70;;;;;;;16.96;57.19;102250.53;5063256;28;20720;-69
2022/04/29 08:19:10;;;;;;;;;;;;;;;17.26;55.98;102253.47;5040799;28;20045;-68
2022/04/29 08:21:52;;;;;;;0.85;0.40;;;;;;;17.36;56.33;102252.88;5044084;28;19916;-68
2022/04/29 08:24:18;;;;;;;5.68;1.08;;;;;;;17.36;56.12;102244.69;5044493;28;20029;-68
2022/04/29 08:26:43;;;;;;;1.10;0.65;;;;;;;17.42;55.48;102242.47;5047202;28;20449;-68
2022/04/29 08:29:10;;;;;;;3.92;0.50;;;;;;;17.44;54.65;102235.50;5046815;28;20510;-69
2022/04/29 08:31:36;;;;;;;0.82;0.50;;;;;;;17.13;54.61;102241.91;5041615;28;20036;-68
2022/04/29 08:34:03;;;;;;;1.25;0.45;;;;;;;17.23;54.97;102243.28;5040425;28;20040;-68
2022/04/29 08:36:30;;;;;;;1.13;0.70;;;;;;;16.99;54.96;102229.97;5037281;28;20035;-68
2022/04/29 08:38:56;;;;;;;0.82;0.80;;;;;;;16.78;54.82;102235.00;5041011;28;20032;-68
2022/04/29 08:41:24;;;;;;;2.05;0.57;;;;;;;16.81;55.84;102240.50;5045075;28;20502;-68
2022/04/29 08:43:50;;;;;;;2.25;1.23;;;;;;;16.37;57.38;102241.06;5046295;28;20197;-68
2022/04/29 08:46:30;;;;;;;1.58;0.77;;;;;;;16.04;57.69;102239.53;5046561;28;20028;-68
2022/04/29 08:49:17;;;;;;;1.30;0.70;;;;;;;15.87;57.76;102228.25;5045885;28;20021;-68
2022/04/29 08:51:44;;;;;;;1.48;0.63;;;;;;;15.82;57.31;102234.72;5066519;28;20036;-70
2022/04/29 08:58:36;;;;;;;0.80;0.55;;;;;;;15.72;59.33;102237.16;5062487;28;20507;-68
2022/04/29 08:59:44;;;;;;;0.70;0.40;;;;;;;16.55;57.51;102242.28;5027874;28;20059;-67
2022/04/29 09:02:09;;;;;;;0.95;0.80;;;;;;;16.53;56.06;102248.06;5060129;28;20051;-68
2022/04/29 09:04:36;;;;;;;1.08;0.45;;;;;;;16.46;55.65;102242.44;5064982;28;20128;-68
2022/04/29 09:07:01;;;;;;;0.80;0.57;;;;;;;16.61;54.56;102247.06;5042312;28;20485;-68
2022/04/29 09:09:27;;;;;;;2.35;0.50;;;;;;;16.55;54.22;102245.00;5062181;28;20032;-68
2022/04/29 09:12:16;;;;;;;0.32;0.30;;;;;;;16.69;52.41;102237.13;5069366;28;20047;-68
2022/04/29 09:14:41;;;;;;;0.82;0.47;;;;;;;16.47;51.98;102232.34;5062535;28;20042;-67
2022/04/29 09:17:25;;;;;;;0.75;0.73;;;;;;;16.41;52.35;102237.28;5066208;28;20025;-68
2022/04/29 09:19:50;;;;;;;1.65;0.57;;;;;;;16.88;52.05;102231.69;5064253;28;20036;-68
2022/04/29 09:22:16;;;;;;;0.20;0.20;;;;;;;17.30;51.83;102231.72;5049291;28;20497;-68
2022/04/29 09:25:03;;;;;;;0.73;0.35;;;;;;;17.54;52.06;102245.03;5045956;28;20032;-68
2022/04/29 09:28:04;;;;;;;0.60;0.40;;;;;;;17.86;49.81;102232.75;5045641;28;20041;-68
2022/04/29 09:31:00;;;;;;;0.50;0.40;;;;;;;17.74;50.40;102231.00;5048388;28;20048;-67
2022/04/29 09:33:57;;;;;;;1.48;0.32;;;;;;;18.23;48.93;102231.00;5067012;28;20055;-67
2022/04/29 09:36:27;;;;;;;0.80;0.52;;;;;;;18.50;49.09;102229.84;5049636;28;20054;-67
2022/04/29 09:41:52;;;;;;;0.68;0.43;;;;;;;18.67;48.94;102220.31;5045362;28;20032;-67
2022/04/29 09:44:34;;;;;;;0.52;0.38;;;;;;;18.88;48.46;102226.81;5068089;28;20081;-68
2022/04/29 09:47:14;;;;;;;1.13;0.40;;;;;;;19.02;47.96;102217.22;5059183;28;20518;-68
2022/04/29 09:49:41;;;;;;;0.25;0.22;;;;;;;19.18;47.25;102220.50;5050728;28;20119;-68
2022/04/29 09:52:07;;;;;;;0.52;0.30;;;;;;;19.26;47.65;102233.84;5047074;28;20542;-68
2022/04/29 09:54:38;;;;;;;0.47;0.30;;;;;;;19.30;46.51;102226.47;5048413;28;20044;-68
2022/04/29 09:57:14;;;;;;;0.63;0.32;;;;;;;19.48;45.67;102232.94;5072923;28;20032;-69
2022/04/29 09:59:54;;;;;;;1.02;0.25;;;;;;;19.60;45.43;102223.69;5043771;28;21428;-68
2022/04/29 10:02:24;;;;;;;0.20;0.20;;;;;;;19.18;44.20;102220.50;5053599;28;20054;-68
2022/04/29 10:04:55;;;;;;;0.50;0.22;;;;;;;18.84;45.45;102217.78;5044795;28;20025;-68
2022/04/29 10:07:22;;;;;;;1.17;0.20;;;;;;;19.21;45.68;102217.00;5054960;28;20032;-68
2022/04/29 10:09:55;;;;;;;1.17;0.38;;;;;;;19.16;46.57;102214.63;5056853;28;20154;-68
2022/04/29 10:12:22;;;;;;;2.42;0.77;;;;;;;19.22;45.74;102219.38;5061678;28;20044;-68
2022/04/29 10:15:06;;;;;;;0.20;0.17;;;;;;;19.56;45.85;102214.66;5048430;28;20031;-69
2022/04/29 10:23:25;;;;;;;2.67;0.40;;;;;;;19.01;44.12;102210.94;5067389;28;20086;-70
2022/04/29 10:25:51;;;;;;;4.55;0.30;;;;;;;19.24;43.84;102206.13;5064853;28;20070;-69
2022/04/29 10:28:19;;;;;;;0.57;0.10;;;;;;;19.59;44.04;102219.34;5063264;28;20040;-69
2022/04/29 10:30:44;;;;;;;1.25;0.20;;;;;;;19.82;42.78;102213.72;5056676;28;20110;-69
2022/04/29 10:33:12;;;;;;;0.17;0.10;;;;;;;19.94;43.03;102216.91;5058342;28;20036;-69
2022/04/29 10:35:43;;;;;;;0.82;0.30;;;;;;;19.91;43.98;102214.16;5064427;28;20040;-69
2022/04/29 10:38:36;;;;;;;0.90;0.40;;;;;;;20.21;42.83;102215.56;5064791;28;20134;-70
2022/04/29 10:41:18;;;;;;;0.15;0.15;;;;;;;20.38;42.52;102220.34;5042734;28;20040;-69
2022/04/29 10:43:52;;;;;;;0.82;0.38;;;;;;;20.28;41.58;102214.84;5058862;28;20044;-70
2022/04/29 10:46:31;;;;;;;0.50;0.43;;;;;;;19.82;42.35;102208.25;5047762;28;20058;-70
2022/04/29 10:49:22;;;;;;;0.17;0.17;;;;;;;19.91;43.42;102201.28;5045203;28;20028;-69
2022/04/29 10:52:03;;;;;;;0.55;0.22;;;;;;;20.26;43.08;102214.44;5064851;28;20397;-69
2022/04/29 10:54:58;;;;;;;0.43;0.40;;;;;;;19.99;42.60;102208.38;5061925;28;20028;-69
2022/04/29 10:57:44;;;;;;;1.08;0.40;;;;;;;20.30;42.60;102210.56;5063506;28;20101;-69
2022/04/29 11:00:15;;;;;;;0.95;0.30;;;;;;;20.49;41.97;102202.03;5049493;28;20043;-69
2022/04/29 11:02:41;;;;;;;1.38;0.35;;;;;;;20.76;42.73;102208.03;5049026;28;20020;-70
2022/04/29 11:05:09;;;;;;;0.30;0.25;;;;;;;20.48;41.13;102199.66;5052056;28;20041;-69
2022/04/29 11:07:46;;;;;;;0.60;0.30;;;;;;;20.51;42.11;102202.44;5026183;28;20063;-69
2022/04/29 11:10:15;;;;;;;0.75;0.40;;;;;;;20.44;42.64;102201.63;5034946;28;20062;-69
2022/04/29 11:12:54;;;;;;;;;;;;;;;20.67;42.27;102202.13;5039784;28;20705;-69
2022/04/29 11:15:44;;;;;;;7.70;0.43;;;;;;;20.73;39.98;102191.59;5052823;28;19955;-70
2022/04/29 11:18:28;;;;;;;0.25;0.25;;;;;;;20.72;40.56;102193.53;5062328;28;20516;-69
2022/04/29 11:20:56;;;;;;;0.98;0.30;;;;;;;20.69;40.20;102186.84;5067243;28;20481;-69
2022/04/29 11:26:18;;;;;;;0.32;0.28;;;;;;;20.66;39.52;102178.63;5056527;28;20119;-69
2022/04/29 11:28:53;;;;;;;1.52;0.45;;;;;;;20.56;40.03;102180.16;5043042;28;20107;-68
2022/04/29 11:31:37;;;;;;;0.60;0.43;;;;;;;20.79;39.89;102181.81;5063568;28;20051;-70
2022/04/29 11:34:09;;;;;;;0.85;0.50;;;;;;;20.60;41.09;102172.75;5047878;28;20496;-69
2022/04/29 11:36:36;;;;;;;0.43;0.32;;;;;;;20.46;40.64;102172.69;5066668;28;20024;-69
2022/04/29 11:39:07;;;;;;;0.10;0.08;;;;;;;21.11;41.12;102171.75;5042240;28;20064;-69
2022/04/29 11:41:32;;;;;;;;;;;;;;;21.03;38.35;102160.00;5046922;28;20057;-69
2022/04/29 11:43:58;;;;;;;0.10;0.10;;;;;;;21.05;39.68;102173.28;5064964;28;19916;-69
2022/04/29 11:46:24;;;;;;;0.50;0.38;;;;;;;21.12;39.64;102154.91;5065743;28;20017;-69
2022/04/29 11:48:59;;;;;;;1.35;0.20;;;;;;;21.18;38.24;102164.31;5047521;28;20028;-69
2022/04/29 11:51:30;;;;;;;0.90;0.47;;;;;;;21.34;38.57;102161.19;5050824;28;20156;-69
2022/04/29 11:54:00;;;;;;;8.32;0.25;;;;;;;21.46;38.32;102156.13;5068359;28;20116;-69
2022/04/29 11:56:37;;;;;;;0.20;0.10;;;;;;;21.30;36.92;102150.22;5049221;28;20039;-69
2022/04/29 11:59:04;;;;;;;0.52;0.25;;;;;;;21.25;37.92;102147.88;5042638;28;20036;-69
2022/04/29 12:01:30;;;;;;;0.65;0.25;;;;;;;21.20;37.48;102142.78;5058595;28;20033;-69
2022/04/29 12:03:55;;;;;;;0.50;0.20;;;;;;;21.05;38.45;102141.22;5062870;28;20036;-69
2022/04/29 12:06:21;;;;;;;0.45;0.20;;;;;;;20.80;38.63;102134.88;5061339;28;20085;-69
2022/04/29 12:08:46;;;;;;;0.30;0.28;;;;;;;20.99;38.38;102134.50;5063298;28;20028;-69
2022/04/29 12:11:27;;;;;;;0.28;0.20;;;;;;;20.94;39.00;102134.13;5031255;28;20405;-69
2022/04/29 12:13:52;;;;;;;0.38;0.25;;;;;;;20.90;39.26;102142.31;5066555;28;20036;-69